sensor_id;sensor_type;location;lat;lon;timestamp;temperature;humidity
22532;DHT22;11432;46.924;7.114;2022-11-04T00:01:57;9.40;99.90
22532;DHT22;11432;46.924;7.114;2022-11-04T00:04:25;9.40;99.90
22532;DHT22;11432;46.924;7.114;2022-11-04T00:06:52;9.40;99.90
22532;DHT22;11432;46.924;7.114;2022-11-04T00:09:23;9.50;99.90
22532;DHT22;11432;46.924;7.114;2022-11-04T00:11:50;9.50;99.90
22532;DHT22;11432;46.924;7.114;2022-11-04T00:14:34;9.40;99.90
22532;DHT22;11432;46.924;7.114;2022-11-04T00:17:01;9.50;99.90
22532;DHT22;11432;46.924;7.114;2022-11-04T00:19:45;9.50;99.90
22532;DHT22;11432;46.924;7.114;2022-11-04T00:22:30;9.40;99.90
22532;DHT22;11432;46.924;7.114;2022-11-04T00:25:14;9.40;99.90
22532;DHT22;11432;46.924;7.114;2022-11-04T00:30:56;9.30;99.90
22532;DHT22;11432;46.924;7.114;2022-11-04T00:33:22;9.30;99.90
22532;DHT22;11432;46.924;7.114;2022-11-04T00:35:54;9.30;47.40
22532;DHT22;11432;46.924;7.114;2022-11-04T00:38:20;9.30;1.00
22532;DHT22;11432;46.924;7.114;2022-11-04T00:40:46;9.30;1.00
22532;DHT22;11432;46.924;7.114;2022-11-04T00:43:11;9.30;1.00
22532;DHT22;11432;46.924;7.114;2022-11-04T00:45:38;9.20;1.00
22532;DHT22;11432;46.924;7.114;2022-11-04T00:48:04;9.20;1.00
22532;DHT22;11432;46.924;7.114;2022-11-04T00:50:30;9.20;1.00
22532;DHT22;11432;46.924;7.114;2022-11-04T00:53:02;9.10;1.00
22532;DHT22;11432;46.924;7.114;2022-11-04T00:55:28;9.20;1.00
22532;DHT22;11432;46.924;7.114;2022-11-04T00:57:54;9.10;1.00
22532;DHT22;11432;46.924;7.114;2022-11-04T01:00:20;9.10;1.00
22532;DHT22;11432;46.924;7.114;2022-11-04T01:02:46;9.10;1.00
22532;DHT22;11432;46.924;7.114;2022-11-04T01:05:12;9.20;1.00
22532;DHT22;11432;46.924;7.114;2022-11-04T01:07:38;9.10;1.00
22532;DHT22;11432;46.924;7.114;2022-11-04T01:10:04;9.00;1.00
22532;DHT22;11432;46.924;7.114;2022-11-04T01:12:30;9.00;1.00
22532;DHT22;11432;46.924;7.114;2022-11-04T01:14:56;9.10;1.00
22532;DHT22;11432;46.924;7.114;2022-11-04T01:17:22;9.10;1.00
22532;DHT22;11432;46.924;7.114;2022-11-04T01:19:47;9.10;1.00
22532;DHT22;11432;46.924;7.114;2022-11-04T01:22:13;9.10;1.00
22532;DHT22;11432;46.924;7.114;2022-11-04T01:24:38;9.10;1.00
22532;DHT22;11432;46.924;7.114;2022-11-04T01:27:04;9.10;1.00
22532;DHT22;11432;46.924;7.114;2022-11-04T01:29:30;9.10;1.00
22532;DHT22;11432;46.924;7.114;2022-11-04T01:31:55;9.10;1.00
22532;DHT22;11432;46.924;7.114;2022-11-04T01:34:21;9.10;1.00
22532;DHT22;11432;46.924;7.114;2022-11-04T01:36:47;9.10;1.00
22532;DHT22;11432;46.924;7.114;2022-11-04T01:39:12;9.00;1.00
22532;DHT22;11432;46.924;7.114;2022-11-04T01:41:38;9.00;1.00
22532;DHT22;11432;46.924;7.114;2022-11-04T01:47:33;9.00;1.00
22532;DHT22;11432;46.924;7.114;2022-11-04T01:50:10;9.00;1.00
22532;DHT22;11432;46.924;7.114;2022-11-04T01:55:26;9.00;1.00
22532;DHT22;11432;46.924;7.114;2022-11-04T01:57:55;9.00;1.00
22532;DHT22;11432;46.924;7.114;2022-11-04T02:00:23;8.90;1.00
22532;DHT22;11432;46.924;7.114;2022-11-04T02:03:10;8.90;1.00
22532;DHT22;11432;46.924;7.114;2022-11-04T02:05:37;8.90;1.00
22532;DHT22;11432;46.924;7.114;2022-11-04T02:08:05;8.80;1.00
22532;DHT22;11432;46.924;7.114;2022-11-04T02:10:31;8.90;1.00
22532;DHT22;11432;46.924;7.114;2022-11-04T02:13:01;8.90;1.00
22532;DHT22;11432;46.924;7.114;2022-11-04T02:18:35;8.90;1.00
22532;DHT22;11432;46.924;7.114;2022-11-04T02:21:38;8.90;12.60
22532;DHT22;11432;46.924;7.114;2022-11-04T02:27:19;8.90;28.30
22532;DHT22;11432;46.924;7.114;2022-11-04T02:32:36;9.00;5.20
22532;DHT22;11432;46.924;7.114;2022-11-04T02:35:38;9.10;1.00
22532;DHT22;11432;46.924;7.114;2022-11-04T02:42:03;9.10;1.00
22532;DHT22;11432;46.924;7.114;2022-11-04T02:44:20;9.20;1.00
22532;DHT22;11432;46.924;7.114;2022-11-04T02:46:56;9.10;1.00
22532;DHT22;11432;46.924;7.114;2022-11-04T02:49:25;9.10;1.00
22532;DHT22;11432;46.924;7.114;2022-11-04T02:51:54;9.10;1.00
22532;DHT22;11432;46.924;7.114;2022-11-04T02:54:45;9.10;1.00
22532;DHT22;11432;46.924;7.114;2022-11-04T02:57:34;9.10;1.00
22532;DHT22;11432;46.924;7.114;2022-11-04T03:00:08;9.10;1.00
22532;DHT22;11432;46.924;7.114;2022-11-04T03:02:50;9.10;1.00
22532;DHT22;11432;46.924;7.114;2022-11-04T03:05:21;9.00;1.00
22532;DHT22;11432;46.924;7.114;2022-11-04T03:07:50;9.00;1.00
22532;DHT22;11432;46.924;7.114;2022-11-04T03:10:23;9.00;1.00
22532;DHT22;11432;46.924;7.114;2022-11-04T03:13:20;9.00;5.70
22532;DHT22;11432;46.924;7.114;2022-11-04T03:16:09;8.90;3.30
22532;DHT22;11432;46.924;7.114;2022-11-04T03:21:38;8.90;20.10
22532;DHT22;11432;46.924;7.114;2022-11-04T03:24:05;8.80;38.80
22532;DHT22;11432;46.924;7.114;2022-11-04T03:26:40;8.80;76.40
22532;DHT22;11432;46.924;7.114;2022-11-04T03:29:20;8.70;99.90
22532;DHT22;11432;46.924;7.114;2022-11-04T03:34:25;8.60;99.90
22532;DHT22;11432;46.924;7.114;2022-11-04T03:36:50;8.60;99.90
22532;DHT22;11432;46.924;7.114;2022-11-04T03:39:16;8.60;99.90
22532;DHT22;11432;46.924;7.114;2022-11-04T03:41:47;8.50;99.90
22532;DHT22;11432;46.924;7.114;2022-11-04T03:44:13;8.60;99.90
22532;DHT22;11432;46.924;7.114;2022-11-04T03:46:39;8.60;99.90
22532;DHT22;11432;46.924;7.114;2022-11-04T03:49:06;8.50;99.90
22532;DHT22;11432;46.924;7.114;2022-11-04T03:51:32;8.50;99.90
22532;DHT22;11432;46.924;7.114;2022-11-04T03:53:58;8.50;99.90
22532;DHT22;11432;46.924;7.114;2022-11-04T03:56:48;8.50;99.90
22532;DHT22;11432;46.924;7.114;2022-11-04T04:05:00;8.40;99.90
22532;DHT22;11432;46.924;7.114;2022-11-04T04:07:37;8.40;99.90
22532;DHT22;11432;46.924;7.114;2022-11-04T04:10:17;8.40;99.90
22532;DHT22;11432;46.924;7.114;2022-11-04T04:13:41;8.30;99.90
22532;DHT22;11432;46.924;7.114;2022-11-04T04:18:48;8.30;99.90
22532;DHT22;11432;46.924;7.114;2022-11-04T04:21:19;8.30;99.90
22532;DHT22;11432;46.924;7.114;2022-11-04T04:23:48;8.20;99.90
22532;DHT22;11432;46.924;7.114;2022-11-04T04:26:34;8.10;99.90
22532;DHT22;11432;46.924;7.114;2022-11-04T04:29:20;8.10;99.90
22532;DHT22;11432;46.924;7.114;2022-11-04T04:31:47;8.10;99.90
22532;DHT22;11432;46.924;7.114;2022-11-04T04:34:16;8.20;99.90
22532;DHT22;11432;46.924;7.114;2022-11-04T04:37:01;8.30;99.90
22532;DHT22;11432;46.924;7.114;2022-11-04T04:39:34;8.20;99.90
22532;DHT22;11432;46.924;7.114;2022-11-04T04:42:19;8.20;99.90
22532;DHT22;11432;46.924;7.114;2022-11-04T04:45:09;8.20;99.90
22532;DHT22;11432;46.924;7.114;2022-11-04T04:47:44;8.20;99.90
22532;DHT22;11432;46.924;7.114;2022-11-04T04:50:14;8.20;99.90
22532;DHT22;11432;46.924;7.114;2022-11-04T04:52:44;8.20;99.90
22532;DHT22;11432;46.924;7.114;2022-11-04T04:55:10;8.20;99.90
22532;DHT22;11432;46.924;7.114;2022-11-04T04:57:36;8.20;99.90
22532;DHT22;11432;46.924;7.114;2022-11-04T05:00:03;8.20;99.90
22532;DHT22;11432;46.924;7.114;2022-11-04T05:02:29;8.20;99.90
22532;DHT22;11432;46.924;7.114;2022-11-04T05:04:55;8.10;99.90
22532;DHT22;11432;46.924;7.114;2022-11-04T05:07:21;8.10;99.90
22532;DHT22;11432;46.924;7.114;2022-11-04T05:09:46;8.10;99.90
22532;DHT22;11432;46.924;7.114;2022-11-04T05:12:12;8.00;99.90
22532;DHT22;11432;46.924;7.114;2022-11-04T05:14:38;8.00;99.90
22532;DHT22;11432;46.924;7.114;2022-11-04T05:17:03;8.00;99.90
22532;DHT22;11432;46.924;7.114;2022-11-04T05:19:29;8.00;99.90
22532;DHT22;11432;46.924;7.114;2022-11-04T05:21:55;8.00;99.90
22532;DHT22;11432;46.924;7.114;2022-11-04T05:24:20;8.00;99.90
22532;DHT22;11432;46.924;7.114;2022-11-04T05:26:46;8.00;99.90
22532;DHT22;11432;46.924;7.114;2022-11-04T05:29:12;7.90;99.90
22532;DHT22;11432;46.924;7.114;2022-11-04T05:31:38;7.90;99.90
22532;DHT22;11432;46.924;7.114;2022-11-04T05:34:03;7.90;99.90
22532;DHT22;11432;46.924;7.114;2022-11-04T05:36:30;7.80;99.90
22532;DHT22;11432;46.924;7.114;2022-11-04T05:38:57;7.80;99.90
22532;DHT22;11432;46.924;7.114;2022-11-04T05:41:23;7.80;99.90
22532;DHT22;11432;46.924;7.114;2022-11-04T05:44:02;7.80;99.90
22532;DHT22;11432;46.924;7.114;2022-11-04T05:46:28;7.80;99.90
22532;DHT22;11432;46.924;7.114;2022-11-04T05:48:54;7.80;99.90
22532;DHT22;11432;46.924;7.114;2022-11-04T05:51:23;7.70;99.90
22532;DHT22;11432;46.924;7.114;2022-11-04T05:53:49;7.70;99.90
22532;DHT22;11432;46.924;7.114;2022-11-04T05:56:14;7.70;99.90
22532;DHT22;11432;46.924;7.114;2022-11-04T05:58:40;7.80;99.90
22532;DHT22;11432;46.924;7.114;2022-11-04T06:03:51;7.70;99.90
22532;DHT22;11432;46.924;7.114;2022-11-04T06:06:17;7.70;99.90
22532;DHT22;11432;46.924;7.114;2022-11-04T06:08:43;7.70;99.90
22532;DHT22;11432;46.924;7.114;2022-11-04T06:11:08;7.60;99.90
22532;DHT22;11432;46.924;7.114;2022-11-04T06:13:34;7.70;99.90
22532;DHT22;11432;46.924;7.114;2022-11-04T06:16:00;7.70;99.90
22532;DHT22;11432;46.924;7.114;2022-11-04T06:18:25;7.70;99.90
22532;DHT22;11432;46.924;7.114;2022-11-04T06:23:37;7.80;99.90
22532;DHT22;11432;46.924;7.114;2022-11-04T06:26:03;7.80;99.90
22532;DHT22;11432;46.924;7.114;2022-11-04T06:28:29;7.90;99.90
22532;DHT22;11432;46.924;7.114;2022-11-04T06:30:59;7.90;99.90
22532;DHT22;11432;46.924;7.114;2022-11-04T06:33:25;7.90;99.90
22532;DHT22;11432;46.924;7.114;2022-11-04T06:35:51;8.00;99.90
22532;DHT22;11432;46.924;7.114;2022-11-04T06:38:17;8.00;99.90
22532;DHT22;11432;46.924;7.114;2022-11-04T06:40:42;7.90;99.90
22532;DHT22;11432;46.924;7.114;2022-11-04T06:43:08;7.90;99.90
22532;DHT22;11432;46.924;7.114;2022-11-04T06:45:33;7.90;99.90
22532;DHT22;11432;46.924;7.114;2022-11-04T06:49:20;7.80;99.90
22532;DHT22;11432;46.924;7.114;2022-11-04T06:51:47;7.80;99.90
22532;DHT22;11432;46.924;7.114;2022-11-04T06:54:14;7.80;99.90
22532;DHT22;11432;46.924;7.114;2022-11-04T06:58:49;7.70;99.90
22532;DHT22;11432;46.924;7.114;2022-11-04T07:01:15;7.70;99.90
22532;DHT22;11432;46.924;7.114;2022-11-04T07:03:41;7.80;99.90
22532;DHT22;11432;46.924;7.114;2022-11-04T07:06:08;7.70;99.90
22532;DHT22;11432;46.924;7.114;2022-11-04T07:08:34;7.80;99.90
22532;DHT22;11432;46.924;7.114;2022-11-04T07:11:00;7.80;99.90
22532;DHT22;11432;46.924;7.114;2022-11-04T07:13:26;7.80;99.90
22532;DHT22;11432;46.924;7.114;2022-11-04T07:15:52;7.90;99.90
22532;DHT22;11432;46.924;7.114;2022-11-04T07:18:17;7.90;99.90
22532;DHT22;11432;46.924;7.114;2022-11-04T07:20:43;8.00;99.90
22532;DHT22;11432;46.924;7.114;2022-11-04T07:23:09;8.10;99.90
22532;DHT22;11432;46.924;7.114;2022-11-04T07:25:34;8.10;99.90
22532;DHT22;11432;46.924;7.114;2022-11-04T07:28:00;9.00;99.90
22532;DHT22;11432;46.924;7.114;2022-11-04T07:30:26;9.60;99.90
22532;DHT22;11432;46.924;7.114;2022-11-04T07:32:51;9.90;99.90
22532;DHT22;11432;46.924;7.114;2022-11-04T07:35:17;10.40;99.90
22532;DHT22;11432;46.924;7.114;2022-11-04T07:37:43;10.40;43.90
22532;DHT22;11432;46.924;7.114;2022-11-04T07:40:09;10.30;55.70
22532;DHT22;11432;46.924;7.114;2022-11-04T07:42:35;9.90;9.60
22532;DHT22;11432;46.924;7.114;2022-11-04T07:45:00;9.70;99.90
22532;DHT22;11432;46.924;7.114;2022-11-04T07:47:29;9.70;99.90
22532;DHT22;11432;46.924;7.114;2022-11-04T07:49:54;9.60;45.90
22532;DHT22;11432;46.924;7.114;2022-11-04T07:52:20;9.60;97.10
22532;DHT22;11432;46.924;7.114;2022-11-04T07:54:46;9.90;99.90
22532;DHT22;11432;46.924;7.114;2022-11-04T07:57:12;10.00;99.90
22532;DHT22;11432;46.924;7.114;2022-11-04T07:59:37;10.30;36.70
22532;DHT22;11432;46.924;7.114;2022-11-04T08:02:03;10.50;74.60
22532;DHT22;11432;46.924;7.114;2022-11-04T08:04:29;10.80;35.30
22532;DHT22;11432;46.924;7.114;2022-11-04T08:06:55;10.80;1.00
22532;DHT22;11432;46.924;7.114;2022-11-04T08:09:20;10.70;1.00
22532;DHT22;11432;46.924;7.114;2022-11-04T08:11:47;10.90;1.00
22532;DHT22;11432;46.924;7.114;2022-11-04T08:14:13;10.70;1.00
22532;DHT22;11432;46.924;7.114;2022-11-04T08:16:39;10.40;1.00
22532;DHT22;11432;46.924;7.114;2022-11-04T08:19:04;10.20;1.00
22532;DHT22;11432;46.924;7.114;2022-11-04T08:21:32;10.10;1.00
22532;DHT22;11432;46.924;7.114;2022-11-04T08:23:58;10.00;1.00
22532;DHT22;11432;46.924;7.114;2022-11-04T08:26:24;9.90;1.00
22532;DHT22;11432;46.924;7.114;2022-11-04T08:28:50;9.90;1.00
22532;DHT22;11432;46.924;7.114;2022-11-04T08:31:27;9.90;1.00
22532;DHT22;11432;46.924;7.114;2022-11-04T08:33:54;9.90;1.00
22532;DHT22;11432;46.924;7.114;2022-11-04T08:36:32;9.80;1.00
22532;DHT22;11432;46.924;7.114;2022-11-04T08:38:59;9.70;1.00
22532;DHT22;11432;46.924;7.114;2022-11-04T08:41:27;9.60;1.00
22532;DHT22;11432;46.924;7.114;2022-11-04T08:43:54;9.60;1.00
22532;DHT22;11432;46.924;7.114;2022-11-04T08:46:20;9.90;1.00
22532;DHT22;11432;46.924;7.114;2022-11-04T08:48:47;9.90;1.00
22532;DHT22;11432;46.924;7.114;2022-11-04T08:51:22;10.00;1.00
22532;DHT22;11432;46.924;7.114;2022-11-04T08:53:49;10.00;1.00
22532;DHT22;11432;46.924;7.114;2022-11-04T08:56:27;10.00;1.00
22532;DHT22;11432;46.924;7.114;2022-11-04T08:58:54;9.90;1.00
22532;DHT22;11432;46.924;7.114;2022-11-04T09:01:20;9.90;1.00
22532;DHT22;11432;46.924;7.114;2022-11-04T09:03:47;9.90;1.00
22532;DHT22;11432;46.924;7.114;2022-11-04T09:06:20;9.90;10.90
22532;DHT22;11432;46.924;7.114;2022-11-04T09:08:46;10.00;1.00
22532;DHT22;11432;46.924;7.114;2022-11-04T09:11:14;10.00;1.00
22532;DHT22;11432;46.924;7.114;2022-11-04T09:13:40;9.80;1.00
22532;DHT22;11432;46.924;7.114;2022-11-04T09:16:07;9.70;1.00
22532;DHT22;11432;46.924;7.114;2022-11-04T09:18:33;9.70;1.00
22532;DHT22;11432;46.924;7.114;2022-11-04T09:21:00;9.80;1.00
22532;DHT22;11432;46.924;7.114;2022-11-04T09:23:26;9.90;1.00
22532;DHT22;11432;46.924;7.114;2022-11-04T09:25:51;10.00;1.00
22532;DHT22;11432;46.924;7.114;2022-11-04T09:28:17;10.10;1.00
22532;DHT22;11432;46.924;7.114;2022-11-04T09:30:43;10.10;1.00
22532;DHT22;11432;46.924;7.114;2022-11-04T09:33:08;10.20;1.00
22532;DHT22;11432;46.924;7.114;2022-11-04T09:35:34;10.20;1.00
22532;DHT22;11432;46.924;7.114;2022-11-04T09:38:00;10.40;1.00
22532;DHT22;11432;46.924;7.114;2022-11-04T09:40:26;10.50;1.00
22532;DHT22;11432;46.924;7.114;2022-11-04T09:45:41;10.60;1.00
22532;DHT22;11432;46.924;7.114;2022-11-04T09:48:17;10.60;1.00
22532;DHT22;11432;46.924;7.114;2022-11-04T09:50:51;10.40;1.00
22532;DHT22;11432;46.924;7.114;2022-11-04T09:53:26;10.20;1.00
22532;DHT22;11432;46.924;7.114;2022-11-04T09:56:19;10.20;1.00
22532;DHT22;11432;46.924;7.114;2022-11-04T09:58:46;10.10;1.00
22532;DHT22;11432;46.924;7.114;2022-11-04T10:09:51;10.10;1.00
22532;DHT22;11432;46.924;7.114;2022-11-04T10:18:15;10.10;1.00
22532;DHT22;11432;46.924;7.114;2022-11-04T10:23:43;10.50;1.00
22532;DHT22;11432;46.924;7.114;2022-11-04T10:28:47;11.10;1.00
22532;DHT22;11432;46.924;7.114;2022-11-04T10:31:16;11.10;1.00
22532;DHT22;11432;46.924;7.114;2022-11-04T10:33:53;11.10;1.00
22532;DHT22;11432;46.924;7.114;2022-11-04T10:36:20;11.10;1.00
22532;DHT22;11432;46.924;7.114;2022-11-04T10:43:49;11.00;1.00
22532;DHT22;11432;46.924;7.114;2022-11-04T10:46:29;11.00;1.00
22532;DHT22;11432;46.924;7.114;2022-11-04T10:51:59;11.00;1.00
22532;DHT22;11432;46.924;7.114;2022-11-04T10:54:26;11.00;1.00
22532;DHT22;11432;46.924;7.114;2022-11-04T10:56:54;11.00;1.00
22532;DHT22;11432;46.924;7.114;2022-11-04T10:59:30;10.90;1.00
22532;DHT22;11432;46.924;7.114;2022-11-04T11:02:01;10.90;1.00
22532;DHT22;11432;46.924;7.114;2022-11-04T11:04:36;10.90;1.00
22532;DHT22;11432;46.924;7.114;2022-11-04T11:07:04;10.90;1.00
22532;DHT22;11432;46.924;7.114;2022-11-04T11:09:32;10.90;1.00
22532;DHT22;11432;46.924;7.114;2022-11-04T11:14:39;10.90;1.00
22532;DHT22;11432;46.924;7.114;2022-11-04T11:19:53;10.90;1.00
22532;DHT22;11432;46.924;7.114;2022-11-04T11:24:52;11.00;1.00
22532;DHT22;11432;46.924;7.114;2022-11-04T11:27:18;11.30;10.70
22532;DHT22;11432;46.924;7.114;2022-11-04T11:29:47;11.40;20.50
22532;DHT22;11432;46.924;7.114;2022-11-04T11:32:30;11.50;22.00
22532;DHT22;11432;46.924;7.114;2022-11-04T11:34:57;11.50;1.00
22532;DHT22;11432;46.924;7.114;2022-11-04T11:37:28;11.50;1.00
22532;DHT22;11432;46.924;7.114;2022-11-04T11:39:57;11.50;1.00
22532;DHT22;11432;46.924;7.114;2022-11-04T11:42:23;11.40;1.00
22532;DHT22;11432;46.924;7.114;2022-11-04T11:44:55;11.40;3.80
22532;DHT22;11432;46.924;7.114;2022-11-04T11:47:34;11.30;4.90
22532;DHT22;11432;46.924;7.114;2022-11-04T11:52:39;11.20;1.00
22532;DHT22;11432;46.924;7.114;2022-11-04T11:55:35;11.10;1.00
22532;DHT22;11432;46.924;7.114;2022-11-04T11:58:38;11.10;1.00
22532;DHT22;11432;46.924;7.114;2022-11-04T12:01:18;11.00;1.00
22532;DHT22;11432;46.924;7.114;2022-11-04T12:03:47;10.90;1.00
22532;DHT22;11432;46.924;7.114;2022-11-04T12:09:24;10.70;1.00
22532;DHT22;11432;46.924;7.114;2022-11-04T12:12:01;10.70;1.00
22532;DHT22;11432;46.924;7.114;2022-11-04T12:20:02;10.70;1.00
22532;DHT22;11432;46.924;7.114;2022-11-04T12:22:36;10.60;1.00
22532;DHT22;11432;46.924;7.114;2022-11-04T12:31:08;10.20;1.00
22532;DHT22;11432;46.924;7.114;2022-11-04T12:33:38;10.10;1.00
22532;DHT22;11432;46.924;7.114;2022-11-04T12:39:23;9.90;1.00
22532;DHT22;11432;46.924;7.114;2022-11-04T12:44:32;9.90;1.00
22532;DHT22;11432;46.924;7.114;2022-11-04T12:47:12;9.80;1.00
22532;DHT22;11432;46.924;7.114;2022-11-04T12:53:01;9.90;82.60
22532;DHT22;11432;46.924;7.114;2022-11-04T13:00:57;9.90;31.40
22532;DHT22;11432;46.924;7.114;2022-11-04T13:03:51;9.90;68.20
22532;DHT22;11432;46.924;7.114;2022-11-04T13:06:22;9.80;45.00
22532;DHT22;11432;46.924;7.114;2022-11-04T13:08:55;9.80;48.60
22532;DHT22;11432;46.924;7.114;2022-11-04T13:11:22;9.60;34.60
22532;DHT22;11432;46.924;7.114;2022-11-04T13:14:28;9.60;98.20
22532;DHT22;11432;46.924;7.114;2022-11-04T13:17:02;9.60;17.50
22532;DHT22;11432;46.924;7.114;2022-11-04T13:19:42;9.50;1.00
22532;DHT22;11432;46.924;7.114;2022-11-04T13:22:15;9.40;1.00
22532;DHT22;11432;46.924;7.114;2022-11-04T13:24:51;9.40;60.90
22532;DHT22;11432;46.924;7.114;2022-11-04T13:27:21;9.40;99.90
22532;DHT22;11432;46.924;7.114;2022-11-04T13:29:48;9.30;22.10
22532;DHT22;11432;46.924;7.114;2022-11-04T13:32:27;9.10;69.30
22532;DHT22;11432;46.924;7.114;2022-11-04T13:35:06;9.10;99.90
22532;DHT22;11432;46.924;7.114;2022-11-04T13:37:48;9.00;99.90
22532;DHT22;11432;46.924;7.114;2022-11-04T13:40:21;9.00;99.90
22532;DHT22;11432;46.924;7.114;2022-11-04T13:45:49;8.90;99.90
22532;DHT22;11432;46.924;7.114;2022-11-04T13:48:19;8.80;99.90
22532;DHT22;11432;46.924;7.114;2022-11-04T13:51:14;8.80;99.90
22532;DHT22;11432;46.924;7.114;2022-11-04T13:56:07;8.70;99.90
22532;DHT22;11432;46.924;7.114;2022-11-04T13:58:32;8.80;99.90
22532;DHT22;11432;46.924;7.114;2022-11-04T14:01:24;8.80;99.90
22532;DHT22;11432;46.924;7.114;2022-11-04T14:06:47;8.70;99.90
22532;DHT22;11432;46.924;7.114;2022-11-04T14:15:01;8.60;99.90
22532;DHT22;11432;46.924;7.114;2022-11-04T14:20:00;8.50;99.90
22532;DHT22;11432;46.924;7.114;2022-11-04T14:22:49;8.50;99.90
22532;DHT22;11432;46.924;7.114;2022-11-04T14:27:52;8.60;99.90
22532;DHT22;11432;46.924;7.114;2022-11-04T14:30:37;8.60;99.90
22532;DHT22;11432;46.924;7.114;2022-11-04T14:33:16;8.60;99.90
22532;DHT22;11432;46.924;7.114;2022-11-04T14:35:44;8.50;99.90
22532;DHT22;11432;46.924;7.114;2022-11-04T14:38:29;8.50;99.90
22532;DHT22;11432;46.924;7.114;2022-11-04T14:41:21;8.40;94.00
22532;DHT22;11432;46.924;7.114;2022-11-04T14:43:47;8.40;99.90
22532;DHT22;11432;46.924;7.114;2022-11-04T14:46:27;8.40;99.90
22532;DHT22;11432;46.924;7.114;2022-11-04T14:48:56;8.40;99.90
22532;DHT22;11432;46.924;7.114;2022-11-04T14:51:26;8.40;99.90
22532;DHT22;11432;46.924;7.114;2022-11-04T14:54:01;8.40;99.90
22532;DHT22;11432;46.924;7.114;2022-11-04T14:56:28;8.40;99.90
22532;DHT22;11432;46.924;7.114;2022-11-04T14:59:01;8.40;99.90
22532;DHT22;11432;46.924;7.114;2022-11-04T15:01:36;8.40;99.90
22532;DHT22;11432;46.924;7.114;2022-11-04T15:06:54;8.40;99.90
22532;DHT22;11432;46.924;7.114;2022-11-04T15:09:22;8.30;99.90
22532;DHT22;11432;46.924;7.114;2022-11-04T15:11:48;8.30;99.90
22532;DHT22;11432;46.924;7.114;2022-11-04T15:14:35;8.40;99.90
22532;DHT22;11432;46.924;7.114;2022-11-04T15:17:01;8.30;99.90
22532;DHT22;11432;46.924;7.114;2022-11-04T15:19:32;8.30;99.90
22532;DHT22;11432;46.924;7.114;2022-11-04T15:22:03;8.20;99.90
22532;DHT22;11432;46.924;7.114;2022-11-04T15:24:29;8.20;99.90
22532;DHT22;11432;46.924;7.114;2022-11-04T15:27:01;8.10;99.90
22532;DHT22;11432;46.924;7.114;2022-11-04T15:29:27;8.10;99.90
22532;DHT22;11432;46.924;7.114;2022-11-04T15:31:54;8.10;99.90
22532;DHT22;11432;46.924;7.114;2022-11-04T15:34:20;8.00;99.90
22532;DHT22;11432;46.924;7.114;2022-11-04T15:36:47;8.00;99.90
22532;DHT22;11432;46.924;7.114;2022-11-04T15:39:19;7.90;99.90
22532;DHT22;11432;46.924;7.114;2022-11-04T15:41:45;7.90;99.90
22532;DHT22;11432;46.924;7.114;2022-11-04T15:44:32;7.90;99.90
22532;DHT22;11432;46.924;7.114;2022-11-04T15:47:20;7.90;99.90
22532;DHT22;11432;46.924;7.114;2022-11-04T15:49:47;7.80;99.90
22532;DHT22;11432;46.924;7.114;2022-11-04T15:52:17;7.80;99.90
22532;DHT22;11432;46.924;7.114;2022-11-04T15:54:46;7.90;99.90
22532;DHT22;11432;46.924;7.114;2022-11-04T15:57:32;7.80;99.90
22532;DHT22;11432;46.924;7.114;2022-11-04T16:00:17;7.80;99.90
22532;DHT22;11432;46.924;7.114;2022-11-04T16:02:44;7.80;99.90
22532;DHT22;11432;46.924;7.114;2022-11-04T16:07:47;7.70;99.90
22532;DHT22;11432;46.924;7.114;2022-11-04T16:10:35;7.70;99.90
22532;DHT22;11432;46.924;7.114;2022-11-04T16:15:48;7.60;99.90
22532;DHT22;11432;46.924;7.114;2022-11-04T16:18:36;7.60;92.60
22532;DHT22;11432;46.924;7.114;2022-11-04T16:23:53;7.50;99.90
22532;DHT22;11432;46.924;7.114;2022-11-04T16:26:26;7.60;94.70
22532;DHT22;11432;46.924;7.114;2022-11-04T16:28:54;7.60;99.90
22532;DHT22;11432;46.924;7.114;2022-11-04T16:33:46;7.60;99.90
22532;DHT22;11432;46.924;7.114;2022-11-04T16:36:13;7.60;99.90
22532;DHT22;11432;46.924;7.114;2022-11-04T16:39:06;7.60;99.90
22532;DHT22;11432;46.924;7.114;2022-11-04T16:41:36;7.60;99.90
22532;DHT22;11432;46.924;7.114;2022-11-04T16:44:04;7.60;99.90
22532;DHT22;11432;46.924;7.114;2022-11-04T16:46:32;7.60;99.90
22532;DHT22;11432;46.924;7.114;2022-11-04T16:48:58;7.60;99.90
22532;DHT22;11432;46.924;7.114;2022-11-04T16:51:24;7.60;99.90
22532;DHT22;11432;46.924;7.114;2022-11-04T16:53:52;7.60;99.90
22532;DHT22;11432;46.924;7.114;2022-11-04T16:56:21;7.60;99.90
22532;DHT22;11432;46.924;7.114;2022-11-04T16:58:49;7.60;99.90
22532;DHT22;11432;46.924;7.114;2022-11-04T17:01:15;7.70;99.90
22532;DHT22;11432;46.924;7.114;2022-11-04T17:03:41;7.70;99.90
22532;DHT22;11432;46.924;7.114;2022-11-04T17:06:09;7.70;99.90
22532;DHT22;11432;46.924;7.114;2022-11-04T17:08:35;7.70;99.90
22532;DHT22;11432;46.924;7.114;2022-11-04T17:11:01;7.70;99.90
22532;DHT22;11432;46.924;7.114;2022-11-04T17:13:27;7.70;99.90
22532;DHT22;11432;46.924;7.114;2022-11-04T17:15:53;7.70;99.90
22532;DHT22;11432;46.924;7.114;2022-11-04T17:18:19;7.60;99.90
22532;DHT22;11432;46.924;7.114;2022-11-04T17:20:50;7.60;99.90
22532;DHT22;11432;46.924;7.114;2022-11-04T17:23:16;7.60;99.90
22532;DHT22;11432;46.924;7.114;2022-11-04T17:25:42;7.50;99.90
22532;DHT22;11432;46.924;7.114;2022-11-04T17:28:08;7.50;99.90
22532;DHT22;11432;46.924;7.114;2022-11-04T17:30:33;7.40;99.90
22532;DHT22;11432;46.924;7.114;2022-11-04T17:32:59;7.40;99.90
22532;DHT22;11432;46.924;7.114;2022-11-04T17:35:25;7.40;99.90
22532;DHT22;11432;46.924;7.114;2022-11-04T17:37:52;7.40;99.90
22532;DHT22;11432;46.924;7.114;2022-11-04T17:40:20;7.40;99.90
22532;DHT22;11432;46.924;7.114;2022-11-04T17:42:46;7.40;99.90
22532;DHT22;11432;46.924;7.114;2022-11-04T17:45:31;7.30;99.90
22532;DHT22;11432;46.924;7.114;2022-11-04T17:48:02;7.40;99.90
22532;DHT22;11432;46.924;7.114;2022-11-04T17:50:28;7.40;99.90
22532;DHT22;11432;46.924;7.114;2022-11-04T17:52:54;7.40;99.90
22532;DHT22;11432;46.924;7.114;2022-11-04T17:55:19;7.40;99.90
22532;DHT22;11432;46.924;7.114;2022-11-04T17:57:45;7.40;99.90
22532;DHT22;11432;46.924;7.114;2022-11-04T18:00:11;7.40;99.90
22532;DHT22;11432;46.924;7.114;2022-11-04T18:02:38;7.40;99.90
22532;DHT22;11432;46.924;7.114;2022-11-04T18:05:04;7.40;99.90
22532;DHT22;11432;46.924;7.114;2022-11-04T18:07:32;7.40;99.90
22532;DHT22;11432;46.924;7.114;2022-11-04T18:09:57;7.40;99.90
22532;DHT22;11432;46.924;7.114;2022-11-04T18:12:23;7.40;99.90
22532;DHT22;11432;46.924;7.114;2022-11-04T18:15:02;7.50;99.90
22532;DHT22;11432;46.924;7.114;2022-11-04T18:17:28;7.40;99.90
22532;DHT22;11432;46.924;7.114;2022-11-04T18:19:53;7.40;99.90
22532;DHT22;11432;46.924;7.114;2022-11-04T18:22:19;7.40;99.90
22532;DHT22;11432;46.924;7.114;2022-11-04T18:24:45;7.40;99.90
22532;DHT22;11432;46.924;7.114;2022-11-04T18:27:15;7.40;99.90
22532;DHT22;11432;46.924;7.114;2022-11-04T18:29:41;7.40;99.90
22532;DHT22;11432;46.924;7.114;2022-11-04T18:32:06;7.40;99.90
22532;DHT22;11432;46.924;7.114;2022-11-04T18:34:32;7.40;99.90
22532;DHT22;11432;46.924;7.114;2022-11-04T18:36:57;7.40;99.90
22532;DHT22;11432;46.924;7.114;2022-11-04T18:39:24;7.40;99.90